sensor_id;sensor_type;location;lat;lon;timestamp;pressure;altitude;pressure_sealevel;temperature;humidity
10668;BME280;5382;42.136;24.796;2023-05-19T00:01:43;99918.03;;;15.45;100.00
10668;BME280;5382;42.136;24.796;2023-05-19T00:04:13;99895.97;;;15.33;100.00
10668;BME280;5382;42.136;24.796;2023-05-19T00:06:40;99911.69;;;15.46;100.00
10668;BME280;5382;42.136;24.796;2023-05-19T00:09:09;99894.31;;;15.32;100.00
10668;BME280;5382;42.136;24.796;2023-05-19T00:11:38;99884.06;;;15.37;100.00
10668;BME280;5382;42.136;24.796;2023-05-19T00:14:07;99899.91;;;15.48;100.00
10668;BME280;5382;42.136;24.796;2023-05-19T00:16:34;99890.94;;;15.49;100.00
10668;BME280;5382;42.136;24.796;2023-05-19T00:19:04;99872.41;;;15.38;100.00
10668;BME280;5382;42.136;24.796;2023-05-19T00:21:34;99867.34;;;15.25;100.00
10668;BME280;5382;42.136;24.796;2023-05-19T00:24:02;99879.56;;;15.38;100.00
10668;BME280;5382;42.136;24.796;2023-05-19T00:26:29;99886.31;;;15.42;100.00
10668;BME280;5382;42.136;24.796;2023-05-19T00:28:56;99818.72;;;15.04;100.00
10668;BME280;5382;42.136;24.796;2023-05-19T00:31:23;99885.72;;;15.38;100.00
10668;BME280;5382;42.136;24.796;2023-05-19T00:33:49;99901.31;;;15.33;100.00
10668;BME280;5382;42.136;24.796;2023-05-19T00:36:19;99886.84;;;15.36;100.00
10668;BME280;5382;42.136;24.796;2023-05-19T00:38:45;99866.09;;;15.30;100.00
10668;BME280;5382;42.136;24.796;2023-05-19T00:41:12;99863.56;;;15.28;100.00
10668;BME280;5382;42.136;24.796;2023-05-19T00:43:39;99869.75;;;15.38;100.00
10668;BME280;5382;42.136;24.796;2023-05-19T00:46:06;99863.84;;;15.25;100.00
10668;BME280;5382;42.136;24.796;2023-05-19T00:48:33;99872.16;;;15.32;100.00
10668;BME280;5382;42.136;24.796;2023-05-19T00:51:00;99876.19;;;15.45;100.00
10668;BME280;5382;42.136;24.796;2023-05-19T00:53:31;99875.22;;;15.37;100.00
10668;BME280;5382;42.136;24.796;2023-05-19T00:55:59;99856.69;;;15.25;100.00
10668;BME280;5382;42.136;24.796;2023-05-19T00:58:26;99874.09;;;15.39;100.00
10668;BME280;5382;42.136;24.796;2023-05-19T01:00:56;99872.56;;;15.46;100.00
10668;BME280;5382;42.136;24.796;2023-05-19T01:03:29;99863.56;;;15.28;100.00
10668;BME280;5382;42.136;24.796;2023-05-19T01:05:57;99886.72;;;15.37;100.00
10668;BME280;5382;42.136;24.796;2023-05-19T01:08:30;99875.06;;;15.48;100.00
10668;BME280;5382;42.136;24.796;2023-05-19T01:10:57;99872.56;;;15.46;100.00
10668;BME280;5382;42.136;24.796;2023-05-19T01:13:25;99861.75;;;15.38;100.00
10668;BME280;5382;42.136;24.796;2023-05-19T01:16:00;99875.91;;;15.48;100.00
10668;BME280;5382;42.136;24.796;2023-05-19T01:18:38;99866.25;;;15.38;100.00
10668;BME280;5382;42.136;24.796;2023-05-19T01:21:22;99853.19;;;15.25;100.00
10668;BME280;5382;42.136;24.796;2023-05-19T01:24:04;99888.41;;;15.48;100.00
10668;BME280;5382;42.136;24.796;2023-05-19T01:26:54;99874.81;;;15.41;100.00
10668;BME280;5382;42.136;24.796;2023-05-19T01:29:40;99877.47;;;15.41;100.00
10668;BME280;5382;42.136;24.796;2023-05-19T01:32:09;99873.94;;;15.41;100.00
10668;BME280;5382;42.136;24.796;2023-05-19T01:34:40;99886.72;;;15.47;100.00
10668;BME280;5382;42.136;24.796;2023-05-19T01:37:08;99867.38;;;15.35;100.00
10668;BME280;5382;42.136;24.796;2023-05-19T01:39:36;99886.31;;;15.52;100.00
10668;BME280;5382;42.136;24.796;2023-05-19T01:42:05;99874.41;;;15.36;100.00
10668;BME280;5382;42.136;24.796;2023-05-19T01:44:32;99888.09;;;15.51;100.00
10668;BME280;5382;42.136;24.796;2023-05-19T01:46:59;99879.16;;;15.42;100.00
10668;BME280;5382;42.136;24.796;2023-05-19T01:49:28;99893.31;;;15.53;100.00
10668;BME280;5382;42.136;24.796;2023-05-19T01:51:55;99825.28;;;15.10;100.00
10668;BME280;5382;42.136;24.796;2023-05-19T01:54:22;99883.91;;;15.48;100.00
10668;BME280;5382;42.136;24.796;2023-05-19T01:56:59;99889.94;;;15.41;100.00
10668;BME280;5382;42.136;24.796;2023-05-19T01:59:40;99888.09;;;15.51;100.00
10668;BME280;5382;42.136;24.796;2023-05-19T02:02:15;99881.28;;;15.39;100.00
10668;BME280;5382;42.136;24.796;2023-05-19T02:04:55;99889.94;;;15.51;100.00
10668;BME280;5382;42.136;24.796;2023-05-19T02:07:28;99902.31;;;15.52;100.00
10668;BME280;5382;42.136;24.796;2023-05-19T02:10:02;99897.66;;;15.54;100.00
10668;BME280;5382;42.136;24.796;2023-05-19T02:12:32;99888.69;;;15.55;100.00
10668;BME280;5382;42.136;24.796;2023-05-19T02:15:09;99887.56;;;15.47;100.00
10668;BME280;5382;42.136;24.796;2023-05-19T02:17:39;99893.19;;;15.54;100.00
10668;BME280;5382;42.136;24.796;2023-05-19T02:20:09;99909.72;;;15.58;100.00
10668;BME280;5382;42.136;24.796;2023-05-19T02:22:36;99888.56;;;15.46;100.00
10668;BME280;5382;42.136;24.796;2023-05-19T02:25:03;99886.16;;;15.53;100.00
10668;BME280;5382;42.136;24.796;2023-05-19T02:27:31;99895.16;;;15.52;100.00
10668;BME280;5382;42.136;24.796;2023-05-19T02:29:58;99899.78;;;15.60;100.00
10668;BME280;5382;42.136;24.796;2023-05-19T02:32:24;99872.41;;;15.38;100.00
10668;BME280;5382;42.136;24.796;2023-05-19T02:34:51;99867.94;;;15.39;100.00
10668;BME280;5382;42.136;24.796;2023-05-19T02:37:22;99900.47;;;15.42;100.00
10668;BME280;5382;42.136;24.796;2023-05-19T02:39:49;99896.81;;;15.53;100.00
10668;BME280;5382;42.136;24.796;2023-05-19T02:42:16;99893.31;;;15.43;100.00
10668;BME280;5382;42.136;24.796;2023-05-19T02:44:43;99868.47;;;15.23;100.00
10668;BME280;5382;42.136;24.796;2023-05-19T02:47:11;99879.72;;;15.36;100.00
10668;BME280;5382;42.136;24.796;2023-05-19T02:49:39;99893.19;;;15.44;100.00
10668;BME280;5382;42.136;24.796;2023-05-19T02:52:07;99899.66;;;15.42;100.00
10668;BME280;5382;42.136;24.796;2023-05-19T02:54:35;99889.09;;;15.40;100.00
10668;BME280;5382;42.136;24.796;2023-05-19T02:57:02;99896.84;;;15.34;100.00
10668;BME280;5382;42.136;24.796;2023-05-19T02:59:31;99917.59;;;15.30;100.00
10668;BME280;5382;42.136;24.796;2023-05-19T03:01:58;99914.94;;;15.40;100.00
10668;BME280;5382;42.136;24.796;2023-05-19T03:04:25;99880.84;;;15.24;100.00
10668;BME280;5382;42.136;24.796;2023-05-19T03:06:52;99871.31;;;15.12;100.00
10668;BME280;5382;42.136;24.796;2023-05-19T03:09:19;99894.03;;;15.25;100.00
10668;BME280;5382;42.136;24.796;2023-05-19T03:11:48;99893.34;;;15.14;100.00
10668;BME280;5382;42.136;24.796;2023-05-19T03:14:14;99900.34;;;15.24;100.00
10668;BME280;5382;42.136;24.796;2023-05-19T03:16:42;99896.00;;;15.23;100.00
10668;BME280;5382;42.136;24.796;2023-05-19T03:19:09;99912.13;;;15.32;100.00
10668;BME280;5382;42.136;24.796;2023-05-19T03:21:36;99942.59;;;15.39;100.00
10668;BME280;5382;42.136;24.796;2023-05-19T03:24:04;99913.41;;;15.37;100.00
10668;BME280;5382;42.136;24.796;2023-05-19T03:26:30;99904.13;;;15.12;100.00
10668;BME280;5382;42.136;24.796;2023-05-19T03:28:59;99914.66;;;15.33;100.00
10668;BME280;5382;42.136;24.796;2023-05-19T03:31:26;99904.56;;;15.37;100.00
10668;BME280;5382;42.136;24.796;2023-05-19T03:33:54;99902.59;;;15.19;100.00
10668;BME280;5382;42.136;24.796;2023-05-19T03:36:22;99892.63;;;15.12;100.00
10668;BME280;5382;42.136;24.796;2023-05-19T03:38:49;99946.94;;;15.40;100.00
10668;BME280;5382;42.136;24.796;2023-05-19T03:41:15;99920.84;;;15.24;100.00
10668;BME280;5382;42.136;24.796;2023-05-19T03:43:42;99906.91;;;15.20;100.00
10668;BME280;5382;42.136;24.796;2023-05-19T03:46:10;99935.72;;;15.36;100.00
10668;BME280;5382;42.136;24.796;2023-05-19T03:48:37;99930.53;;;15.44;100.00
10668;BME280;5382;42.136;24.796;2023-05-19T03:51:04;99926.31;;;15.32;100.00
10668;BME280;5382;42.136;24.796;2023-05-19T03:53:32;99925.44;;;15.51;100.00
10668;BME280;5382;42.136;24.796;2023-05-19T03:55:58;99926.72;;;15.27;100.00
10668;BME280;5382;42.136;24.796;2023-05-19T03:58:26;99943.00;;;15.54;100.00
10668;BME280;5382;42.136;24.796;2023-05-19T04:00:54;99895.72;;;15.26;100.00
10668;BME280;5382;42.136;24.796;2023-05-19T04:03:22;99942.31;;;15.52;100.00
10668;BME280;5382;42.136;24.796;2023-05-19T04:05:50;99973.03;;;15.56;100.00
10668;BME280;5382;42.136;24.796;2023-05-19T04:08:17;99925.47;;;15.41;100.00
10668;BME280;5382;42.136;24.796;2023-05-19T04:10:44;99940.59;;;15.51;100.00
10668;BME280;5382;42.136;24.796;2023-05-19T04:13:10;99934.72;;;15.57;100.00
10668;BME280;5382;42.136;24.796;2023-05-19T04:15:37;99928.41;;;15.48;100.00
10668;BME280;5382;42.136;24.796;2023-05-19T04:18:05;99913.81;;;15.42;100.00
10668;BME280;5382;42.136;24.796;2023-05-19T04:20:33;99954.25;;;15.67;100.00
10668;BME280;5382;42.136;24.796;2023-05-19T04:23:00;99954.81;;;15.70;100.00
10668;BME280;5382;42.136;24.796;2023-05-19T04:25:27;99938.50;;;15.64;100.00
10668;BME280;5382;42.136;24.796;2023-05-19T04:27:54;99914.22;;;15.57;100.00
10668;BME280;5382;42.136;24.796;2023-05-19T04:30:22;99971.94;;;15.78;100.00
10668;BME280;5382;42.136;24.796;2023-05-19T04:32:49;99937.94;;;15.51;100.00
10668;BME280;5382;42.136;24.796;2023-05-19T04:35:16;99965.91;;;15.85;100.00
10668;BME280;5382;42.136;24.796;2023-05-19T04:37:46;99969.13;;;15.89;100.00
10668;BME280;5382;42.136;24.796;2023-05-19T04:40:13;99968.81;;;15.92;100.00
10668;BME280;5382;42.136;24.796;2023-05-19T04:42:40;99986.25;;;15.96;100.00
10668;BME280;5382;42.136;24.796;2023-05-19T04:45:10;99976.53;;;16.05;100.00
10668;BME280;5382;42.136;24.796;2023-05-19T04:47:38;99979.59;;;16.10;100.00
10668;BME280;5382;42.136;24.796;2023-05-19T04:50:06;99964.41;;;16.20;100.00
10668;BME280;5382;42.136;24.796;2023-05-19T04:52:34;99965.81;;;16.24;100.00
10668;BME280;5382;42.136;24.796;2023-05-19T04:55:04;99966.88;;;16.41;100.00
10668;BME280;5382;42.136;24.796;2023-05-19T04:57:30;99966.34;;;16.38;100.00
10668;BME280;5382;42.136;24.796;2023-05-19T04:59:57;99975.44;;;16.45;100.00
10668;BME280;5382;42.136;24.796;2023-05-19T05:02:25;99943.31;;;16.27;100.00
10668;BME280;5382;42.136;24.796;2023-05-19T05:04:52;99983.69;;;16.51;100.00
10668;BME280;5382;42.136;24.796;2023-05-19T05:07:21;99985.84;;;16.48;100.00
10668;BME280;5382;42.136;24.796;2023-05-19T05:09:47;99997.56;;;16.65;100.00
10668;BME280;5382;42.136;24.796;2023-05-19T05:12:16;99961.50;;;16.51;100.00
10668;BME280;5382;42.136;24.796;2023-05-19T05:14:44;100007.25;;;16.75;100.00
10668;BME280;5382;42.136;24.796;2023-05-19T05:17:11;99988.97;;;16.81;100.00
10668;BME280;5382;42.136;24.796;2023-05-19T05:19:39;99985.88;;;16.75;100.00
10668;BME280;5382;42.136;24.796;2023-05-19T05:22:06;99969.97;;;16.74;100.00
10668;BME280;5382;42.136;24.796;2023-05-19T05:24:33;100002.44;;;16.89;100.00
10668;BME280;5382;42.136;24.796;2023-05-19T05:27:00;99991.78;;;16.79;100.00
10668;BME280;5382;42.136;24.796;2023-05-19T05:29:29;99990.28;;;16.94;100.00
10668;BME280;5382;42.136;24.796;2023-05-19T05:31:56;100006.63;;;16.91;100.00
10668;BME280;5382;42.136;24.796;2023-05-19T05:34:23;100007.16;;;16.95;100.00
10668;BME280;5382;42.136;24.796;2023-05-19T05:36:50;99989.19;;;16.87;100.00
10668;BME280;5382;42.136;24.796;2023-05-19T05:39:17;99984.16;;;16.84;100.00
10668;BME280;5382;42.136;24.796;2023-05-19T05:41:44;100026.53;;;17.07;100.00
10668;BME280;5382;42.136;24.796;2023-05-19T05:44:11;99998.84;;;16.98;100.00
10668;BME280;5382;42.136;24.796;2023-05-19T05:46:40;100003.06;;;17.00;100.00
10668;BME280;5382;42.136;24.796;2023-05-19T05:49:07;100009.56;;;17.16;100.00
10668;BME280;5382;42.136;24.796;2023-05-19T05:51:35;100012.13;;;17.17;100.00
10668;BME280;5382;42.136;24.796;2023-05-19T05:54:03;100023.66;;;17.18;100.00
10668;BME280;5382;42.136;24.796;2023-05-19T05:56:32;100013.34;;;17.23;100.00
10668;BME280;5382;42.136;24.796;2023-05-19T05:59:01;100030.91;;;17.26;100.00
10668;BME280;5382;42.136;24.796;2023-05-19T06:01:28;100052.00;;;17.29;100.00
10668;BME280;5382;42.136;24.796;2023-05-19T06:03:57;100003.78;;;17.20;100.00
10668;BME280;5382;42.136;24.796;2023-05-19T06:06:24;100023.69;;;17.36;100.00
10668;BME280;5382;42.136;24.796;2023-05-19T06:08:51;100051.97;;;17.38;100.00
10668;BME280;5382;42.136;24.796;2023-05-19T06:11:18;100035.59;;;17.41;100.00
10668;BME280;5382;42.136;24.796;2023-05-19T06:13:45;100051.50;;;17.43;100.00
10668;BME280;5382;42.136;24.796;2023-05-19T06:16:12;100035.16;;;17.46;100.00
10668;BME280;5382;42.136;24.796;2023-05-19T06:18:39;100039.34;;;17.49;100.00
10668;BME280;5382;42.136;24.796;2023-05-19T06:21:07;100038.59;;;17.38;100.00
10668;BME280;5382;42.136;24.796;2023-05-19T06:23:34;100060.47;;;17.52;100.00
10668;BME280;5382;42.136;24.796;2023-05-19T06:26:01;100040.97;;;17.59;100.00
10668;BME280;5382;42.136;24.796;2023-05-19T06:28:28;100027.22;;;17.54;100.00
10668;BME280;5382;42.136;24.796;2023-05-19T06:30:56;99995.16;;;17.62;100.00
10668;BME280;5382;42.136;24.796;2023-05-19T06:33:23;100037.03;;;17.99;100.00
10668;BME280;5382;42.136;24.796;2023-05-19T06:35:50;100043.44;;;18.06;100.00
10668;BME280;5382;42.136;24.796;2023-05-19T06:38:18;100052.97;;;18.27;100.00
10668;BME280;5382;42.136;24.796;2023-05-19T06:40:45;100019.19;;;18.08;100.00
10668;BME280;5382;42.136;24.796;2023-05-19T06:43:12;100033.38;;;18.26;100.00
10668;BME280;5382;42.136;24.796;2023-05-19T06:45:38;100054.13;;;18.50;100.00
10668;BME280;5382;42.136;24.796;2023-05-19T06:48:05;100008.63;;;18.33;100.00
10668;BME280;5382;42.136;24.796;2023-05-19T06:50:40;100019.06;;;18.36;100.00
10668;BME280;5382;42.136;24.796;2023-05-19T06:53:07;100022.50;;;18.28;100.00
10668;BME280;5382;42.136;24.796;2023-05-19T06:55:38;100047.72;;;18.43;100.00
10668;BME280;5382;42.136;24.796;2023-05-19T06:58:06;99994.63;;;18.13;100.00
10668;BME280;5382;42.136;24.796;2023-05-19T07:00:33;100022.72;;;18.35;100.00
10668;BME280;5382;42.136;24.796;2023-05-19T07:03:00;99982.81;;;18.23;100.00
10668;BME280;5382;42.136;24.796;2023-05-19T07:05:27;100011.19;;;18.42;100.00
10668;BME280;5382;42.136;24.796;2023-05-19T07:07:54;100020.06;;;18.69;100.00
10668;BME280;5382;42.136;24.796;2023-05-19T07:10:21;100023.38;;;18.89;100.00
10668;BME280;5382;42.136;24.796;2023-05-19T07:12:49;100040.72;;;19.11;100.00
10668;BME280;5382;42.136;24.796;2023-05-19T07:15:16;100033.03;;;19.16;100.00
10668;BME280;5382;42.136;24.796;2023-05-19T07:17:43;100037.41;;;19.17;100.00
10668;BME280;5382;42.136;24.796;2023-05-19T07:20:10;100040.78;;;19.27;100.00
10668;BME280;5382;42.136;24.796;2023-05-19T07:22:37;100047.88;;;19.36;100.00
10668;BME280;5382;42.136;24.796;2023-05-19T07:25:04;100013.28;;;19.33;100.00
10668;BME280;5382;42.136;24.796;2023-05-19T07:27:31;100027.38;;;19.35;100.00
10668;BME280;5382;42.136;24.796;2023-05-19T07:30:00;100011.59;;;19.24;100.00
10668;BME280;5382;42.136;24.796;2023-05-19T07:32:28;100030.75;;;19.37;100.00
10668;BME280;5382;42.136;24.796;2023-05-19T07:34:55;100029.38;;;19.33;100.00
10668;BME280;5382;42.136;24.796;2023-05-19T07:37:22;100011.75;;;19.23;100.00
10668;BME280;5382;42.136;24.796;2023-05-19T07:40:09;100048.91;;;19.60;100.00
10668;BME280;5382;42.136;24.796;2023-05-19T07:42:36;100056.50;;;19.65;100.00
10668;BME280;5382;42.136;24.796;2023-05-19T07:45:06;100041.22;;;19.65;100.00
10668;BME280;5382;42.136;24.796;2023-05-19T07:47:33;100042.03;;;19.66;100.00
10668;BME280;5382;42.136;24.796;2023-05-19T07:50:00;100015.56;;;19.71;100.00
10668;BME280;5382;42.136;24.796;2023-05-19T07:52:26;100059.75;;;20.01;100.00
10668;BME280;5382;42.136;24.796;2023-05-19T07:54:53;100062.09;;;20.12;100.00
10668;BME280;5382;42.136;24.796;2023-05-19T07:57:20;100065.78;;;20.19;100.00
10668;BME280;5382;42.136;24.796;2023-05-19T07:59:47;100055.38;;;20.24;100.00
10668;BME280;5382;42.136;24.796;2023-05-19T08:02:15;100031.19;;;20.24;100.00
10668;BME280;5382;42.136;24.796;2023-05-19T08:04:42;100071.81;;;20.38;100.00
10668;BME280;5382;42.136;24.796;2023-05-19T08:07:09;100069.81;;;20.32;100.00
10668;BME280;5382;42.136;24.796;2023-05-19T08:09:36;100034.88;;;20.07;100.00
10668;BME280;5382;42.136;24.796;2023-05-19T08:12:03;100051.66;;;20.17;100.00
10668;BME280;5382;42.136;24.796;2023-05-19T08:14:30;100067.78;;;20.25;100.00
10668;BME280;5382;42.136;24.796;2023-05-19T08:16:58;100075.19;;;20.40;100.00
10668;BME280;5382;42.136;24.796;2023-05-19T08:19:26;100065.41;;;20.47;100.00
10668;BME280;5382;42.136;24.796;2023-05-19T08:21:53;100074.47;;;20.46;100.00
10668;BME280;5382;42.136;24.796;2023-05-19T08:24:20;100059.38;;;20.45;100.00
10668;BME280;5382;42.136;24.796;2023-05-19T08:26:48;100078.34;;;20.68;100.00
10668;BME280;5382;42.136;24.796;2023-05-19T08:29:15;100064.38;;;20.81;100.00
10668;BME280;5382;42.136;24.796;2023-05-19T08:31:41;100054.69;;;21.03;100.00
10668;BME280;5382;42.136;24.796;2023-05-19T08:34:08;100071.00;;;21.09;100.00
10668;BME280;5382;42.136;24.796;2023-05-19T08:36:36;100072.47;;;21.20;100.00
10668;BME280;5382;42.136;24.796;2023-05-19T08:39:05;100067.50;;;21.32;100.00
10668;BME280;5382;42.136;24.796;2023-05-19T08:41:32;100030.19;;;21.29;100.00
10668;BME280;5382;42.136;24.796;2023-05-19T08:43:58;100061.22;;;21.56;100.00
10668;BME280;5382;42.136;24.796;2023-05-19T08:46:25;100062.03;;;21.56;100.00
10668;BME280;5382;42.136;24.796;2023-05-19T08:48:58;100062.44;;;21.68;100.00
10668;BME280;5382;42.136;24.796;2023-05-19T08:51:35;100011.88;;;21.55;100.00
10668;BME280;5382;42.136;24.796;2023-05-19T08:54:12;100028.09;;;21.70;100.00
10668;BME280;5382;42.136;24.796;2023-05-19T08:56:42;100048.94;;;21.99;100.00
10668;BME280;5382;42.136;24.796;2023-05-19T08:59:09;100039.16;;;21.98;100.00
10668;BME280;5382;42.136;24.796;2023-05-19T09:01:37;100049.53;;;22.10;100.00
10668;BME280;5382;42.136;24.796;2023-05-19T09:04:05;100043.94;;;22.11;100.00
10668;BME280;5382;42.136;24.796;2023-05-19T09:06:32;100047.19;;;22.30;100.00
10668;BME280;5382;42.136;24.796;2023-05-19T09:08:59;100056.38;;;22.35;100.00
10668;BME280;5382;42.136;24.796;2023-05-19T09:11:27;100038.03;;;22.54;100.00
10668;BME280;5382;42.136;24.796;2023-05-19T09:13:54;100035.59;;;22.74;100.00
10668;BME280;5382;42.136;24.796;2023-05-19T09:16:20;100032.81;;;22.82;100.00
10668;BME280;5382;42.136;24.796;2023-05-19T09:18:59;100039.13;;;22.89;100.00
10668;BME280;5382;42.136;24.796;2023-05-19T09:21:27;100024.25;;;22.93;100.00
10668;BME280;5382;42.136;24.796;2023-05-19T09:23:55;100024.91;;;22.95;100.00
10668;BME280;5382;42.136;24.796;2023-05-19T09:26:22;100017.94;;;23.01;100.00
10668;BME280;5382;42.136;24.796;2023-05-19T09:28:50;100030.50;;;23.08;100.00
10668;BME280;5382;42.136;24.796;2023-05-19T09:31:17;100015.50;;;23.21;100.00
10668;BME280;5382;42.136;24.796;2023-05-19T09:33:44;100020.84;;;23.36;100.00
10668;BME280;5382;42.136;24.796;2023-05-19T09:36:11;100023.47;;;23.65;100.00
10668;BME280;5382;42.136;24.796;2023-05-19T09:38:38;100018.72;;;23.67;98.06
10668;BME280;5382;42.136;24.796;2023-05-19T09:41:06;100015.25;;;23.73;100.00
10668;BME280;5382;42.136;24.796;2023-05-19T09:43:33;100006.94;;;23.97;99.79
10668;BME280;5382;42.136;24.796;2023-05-19T09:46:04;100007.94;;;24.17;100.00
10668;BME280;5382;42.136;24.796;2023-05-19T09:48:31;100012.31;;;24.46;98.10
10668;BME280;5382;42.136;24.796;2023-05-19T09:50:59;100012.63;;;24.30;93.88
10668;BME280;5382;42.136;24.796;2023-05-19T09:53:28;100004.75;;;24.07;93.91
10668;BME280;5382;42.136;24.796;2023-05-19T09:55:56;100001.81;;;24.08;94.56
10668;BME280;5382;42.136;24.796;2023-05-19T09:58:23;100001.53;;;23.97;98.47
10668;BME280;5382;42.136;24.796;2023-05-19T10:00:51;100006.47;;;23.93;97.25
10668;BME280;5382;42.136;24.796;2023-05-19T10:03:21;100012.38;;;23.75;100.00
10668;BME280;5382;42.136;24.796;2023-05-19T10:05:49;100008.53;;;23.69;100.00
10668;BME280;5382;42.136;24.796;2023-05-19T10:08:17;100007.63;;;23.62;100.00
10668;BME280;5382;42.136;24.796;2023-05-19T10:10:45;100004.06;;;23.62;100.00
10668;BME280;5382;42.136;24.796;2023-05-19T10:13:12;100008.25;;;23.64;100.00
10668;BME280;5382;42.136;24.796;2023-05-19T10:15:41;100006.72;;;23.55;100.00
10668;BME280;5382;42.136;24.796;2023-05-19T10:18:08;99995.72;;;23.57;100.00
10668;BME280;5382;42.136;24.796;2023-05-19T10:20:36;99985.38;;;23.60;100.00
10668;BME280;5382;42.136;24.796;2023-05-19T10:23:04;99986.19;;;23.76;100.00
10668;BME280;5382;42.136;24.796;2023-05-19T10:25:31;99980.50;;;23.92;100.00
10668;BME280;5382;42.136;24.796;2023-05-19T10:28:03;99976.56;;;24.51;95.61
10668;BME280;5382;42.136;24.796;2023-05-19T10:30:34;99980.78;;;25.08;95.56
10668;BME280;5382;42.136;24.796;2023-05-19T10:33:05;99964.91;;;25.66;88.55
10668;BME280;5382;42.136;24.796;2023-05-19T10:38:26;99979.22;;;26.80;76.59
10668;BME280;5382;42.136;24.796;2023-05-19T10:41:03;99975.16;;;27.41;76.79
10668;BME280;5382;42.136;24.796;2023-05-19T10:43:42;99971.84;;;27.71;68.41
10668;BME280;5382;42.136;24.796;2023-05-19T10:46:11;99963.38;;;28.29;67.22
10668;BME280;5382;42.136;24.796;2023-05-19T10:48:43;99975.13;;;29.03;65.12
10668;BME280;5382;42.136;24.796;2023-05-19T10:51:13;99973.22;;;29.22;62.11
10668;BME280;5382;42.136;24.796;2023-05-19T10:53:41;99973.34;;;28.97;63.35
10668;BME280;5382;42.136;24.796;2023-05-19T10:56:11;99983.38;;;28.41;63.02
10668;BME280;5382;42.136;24.796;2023-05-19T10:58:40;99971.91;;;28.14;66.74
10668;BME280;5382;42.136;24.796;2023-05-19T11:01:15;99977.91;;;27.73;69.25
10668;BME280;5382;42.136;24.796;2023-05-19T11:03:46;100001.84;;;27.57;77.61
10668;BME280;5382;42.136;24.796;2023-05-19T11:06:19;100002.34;;;26.89;75.56
10668;BME280;5382;42.136;24.796;2023-05-19T11:08:51;99980.34;;;25.73;83.71
10668;BME280;5382;42.136;24.796;2023-05-19T11:11:18;99990.94;;;24.51;93.18
10668;BME280;5382;42.136;24.796;2023-05-19T11:13:46;99991.63;;;24.32;93.74
10668;BME280;5382;42.136;24.796;2023-05-19T11:16:13;99984.56;;;24.66;90.43
10668;BME280;5382;42.136;24.796;2023-05-19T11:18:47;99984.69;;;24.51;93.72
10668;BME280;5382;42.136;24.796;2023-05-19T11:21:14;99981.25;;;24.07;96.58
10668;BME280;5382;42.136;24.796;2023-05-19T11:23:43;99965.75;;;23.51;100.00
10668;BME280;5382;42.136;24.796;2023-05-19T11:26:11;99997.06;;;23.46;100.00
10668;BME280;5382;42.136;24.796;2023-05-19T11:28:38;99999.72;;;23.39;100.00
10668;BME280;5382;42.136;24.796;2023-05-19T11:31:06;99999.25;;;22.70;100.00
10668;BME280;5382;42.136;24.796;2023-05-19T11:33:35;99990.50;;;22.15;100.00
10668;BME280;5382;42.136;24.796;2023-05-19T11:36:02;99976.22;;;21.76;100.00
10668;BME280;5382;42.136;24.796;2023-05-19T11:38:30;99960.94;;;22.59;100.00
10668;BME280;5382;42.136;24.796;2023-05-19T11:40:59;99956.69;;;23.16;100.00
10668;BME280;5382;42.136;24.796;2023-05-19T11:43:26;99961.00;;;23.97;98.03
10668;BME280;5382;42.136;24.796;2023-05-19T11:45:53;99958.38;;;24.38;93.58
10668;BME280;5382;42.136;24.796;2023-05-19T11:48:21;99965.41;;;24.61;94.02
10668;BME280;5382;42.136;24.796;2023-05-19T11:50:49;99947.44;;;24.94;92.20
10668;BME280;5382;42.136;24.796;2023-05-19T11:53:16;99961.94;;;25.28;87.95
10668;BME280;5382;42.136;24.796;2023-05-19T11:55:44;99956.28;;;24.75;87.95
10668;BME280;5382;42.136;24.796;2023-05-19T11:58:13;99958.59;;;24.43;92.57
10668;BME280;5382;42.136;24.796;2023-05-19T12:00:42;99958.75;;;24.63;92.49
10668;BME280;5382;42.136;24.796;2023-05-19T12:03:10;99949.47;;;25.67;87.52
10668;BME280;5382;42.136;24.796;2023-05-19T12:05:41;99953.19;;;26.39;72.71
10668;BME280;5382;42.136;24.796;2023-05-19T12:08:10;99949.88;;;27.40;71.04
10668;BME280;5382;42.136;24.796;2023-05-19T12:10:37;99952.28;;;27.55;65.29
10668;BME280;5382;42.136;24.796;2023-05-19T12:13:05;99941.84;;;27.84;65.22
10668;BME280;5382;42.136;24.796;2023-05-19T12:15:34;99935.03;;;28.37;61.98
10668;BME280;5382;42.136;24.796;2023-05-19T12:18:02;99935.53;;;29.19;58.98
10668;BME280;5382;42.136;24.796;2023-05-19T12:20:29;99933.00;;;28.87;57.57
10668;BME280;5382;42.136;24.796;2023-05-19T12:23:00;99936.66;;;29.84;57.65
10668;BME280;5382;42.136;24.796;2023-05-19T12:25:27;99939.16;;;30.09;54.62
10668;BME280;5382;42.136;24.796;2023-05-19T12:27:56;99926.84;;;30.30;53.28
10668;BME280;5382;42.136;24.796;2023-05-19T12:30:27;99913.50;;;30.10;54.74
10668;BME280;5382;42.136;24.796;2023-05-19T12:32:56;99911.38;;;29.76;54.12
10668;BME280;5382;42.136;24.796;2023-05-19T12:35:25;99913.41;;;28.97;56.13
10668;BME280;5382;42.136;24.796;2023-05-19T12:37:52;99925.16;;;29.28;55.84
10668;BME280;5382;42.136;24.796;2023-05-19T12:40:20;99921.66;;;29.63;55.13
10668;BME280;5382;42.136;24.796;2023-05-19T12:42:48;99914.81;;;29.84;53.82
10668;BME280;5382;42.136;24.796;2023-05-19T12:45:19;99917.56;;;30.42;51.70
10668;BME280;5382;42.136;24.796;2023-05-19T12:47:47;99908.59;;;31.28;48.25
10668;BME280;5382;42.136;24.796;2023-05-19T12:50:16;99898.88;;;31.66;45.39
10668;BME280;5382;42.136;24.796;2023-05-19T12:52:45;99899.13;;;32.59;47.08
10668;BME280;5382;42.136;24.796;2023-05-19T12:55:12;99901.03;;;33.35;43.86
10668;BME280;5382;42.136;24.796;2023-05-19T12:57:42;99900.75;;;33.63;43.31